SBSR Informações do Aeroporto

Informações da Pista
Pista 7 Comprimento 5381 ft Largura 115 ft
Elevação 0 ft Limite 0 ft Heading 0
Pista 25 Comprimento 5381 ft Largura 115 ft
Elevação 0 ft Limite 0 ft Heading 0
Frequências do Aeroporto
Tipo AFIS Nome RDO Frequência 130.85 MHZ
Navaids do Aeroporto
Tipo NDB Nome Rio Preto Frequência 420 KHZ
Informações meteorológicas do aeroporto e NOTAM
ADDS - METARS form results

(2157 UTC 16 November 2018)
Data provider http://aviationweather.gov/metar/data/
 
METAR text: SBSR 162100Z 10015KT 060V150 9000 -TSRA SCT025 FEW035CB 24/21 Q1012
Conditions at: SBSR (SAO JOSE PRETO , BR) observed 2100 UTC 16 November 2018
Temperature: 24.0°C (75°F)
Dewpoint: 21.0°C (70°F) [RH = 83%]
Pressure (altimeter): 29.88 inches Hg (1012.0 mb)
Winds: from the E (100 degrees) at 17 MPH (15 knots; 7.7 m/s)
Visibility: 6 miles ( 9 km)
Ceiling: at least 12,000 feet AGL
Clouds: scattered clouds at 2500 feet AGL
few clouds at 3500 feet AGL
Weather: -TSRA  (light rain associated with thunderstorm(s))